createdAt,value
2023-01-19T00:02:15.181Z,99878.94
2023-01-19T00:04:47.100Z,99875.06
2023-01-19T00:07:22.244Z,99883.16
2023-01-19T00:09:55.541Z,99882.91
2023-01-19T00:12:28.237Z,99886.66
2023-01-19T00:15:02.799Z,99893.41
2023-01-19T00:17:34.920Z,99890.63
2023-01-19T00:20:20.820Z,99894.13
2023-01-19T00:23:11.022Z,99906.69
2023-01-19T00:25:47.601Z,99895.06
2023-01-19T00:28:21.678Z,99910.59
2023-01-19T00:30:56.201Z,99907.97
2023-01-19T00:33:28.461Z,99913.59
2023-01-19T00:36:00.646Z,99914.53
2023-01-19T00:38:32.908Z,99917.06
2023-01-19T00:41:04.940Z,99922.34
2023-01-19T00:43:34.701Z,99919.00
2023-01-19T00:46:10.018Z,99922.97
2023-01-19T00:48:42.579Z,99924.50
2023-01-19T00:51:14.718Z,99924.78
2023-01-19T00:53:47.239Z,99919.38
2023-01-19T00:56:19.318Z,99918.53
2023-01-19T00:58:51.984Z,99920.81
2023-01-19T01:01:45.249Z,99925.03
2023-01-19T01:04:19.547Z,99926.47
2023-01-19T01:06:51.520Z,99935.63
2023-01-19T01:09:24.507Z,99930.69
2023-01-19T01:11:57.158Z,99925.16
2023-01-19T01:14:29.659Z,99919.84
2023-01-19T01:17:04.720Z,99924.66
2023-01-19T01:19:37.681Z,99928.66
2023-01-19T01:22:10.088Z,99926.72
2023-01-19T01:24:42.781Z,99925.75
2023-01-19T01:27:16.323Z,99931.63
2023-01-19T01:29:49.660Z,99934.66
2023-01-19T01:32:24.781Z,99934.31
2023-01-19T01:34:57.319Z,99940.66
2023-01-19T01:37:29.661Z,99942.94
2023-01-19T01:40:21.868Z,99943.06
2023-01-19T01:42:54.029Z,99945.41
2023-01-19T01:45:35.008Z,99941.84
2023-01-19T01:48:13.912Z,99944.25
2023-01-19T01:51:03.828Z,99946.31
2023-01-19T01:53:38.059Z,99950.75
2023-01-19T01:56:17.522Z,99955.44
2023-01-19T01:58:49.594Z,99949.63
2023-01-19T02:01:34.164Z,99940.97
2023-01-19T02:04:08.938Z,99939.91
2023-01-19T02:06:53.590Z,99940.38
2023-01-19T02:09:39.881Z,99943.00
2023-01-19T02:12:24.199Z,99946.63
2023-01-19T02:14:55.711Z,99951.19
2023-01-19T02:17:27.632Z,99943.53
2023-01-19T02:20:02.024Z,99941.00
2023-01-19T02:22:40.959Z,99937.53
2023-01-19T02:25:15.388Z,99940.88
2023-01-19T02:27:47.569Z,99944.72
2023-01-19T02:30:20.815Z,99951.94
2023-01-19T02:32:53.049Z,99948.69
2023-01-19T02:35:26.815Z,99945.78
2023-01-19T02:38:00.234Z,99945.19
2023-01-19T02:40:34.972Z,99940.06
2023-01-19T02:43:09.560Z,99943.84
2023-01-19T02:45:41.880Z,99940.91
2023-01-19T02:48:14.427Z,99933.84
2023-01-19T02:50:50.242Z,99930.84
2023-01-19T02:53:46.274Z,99936.25
2023-01-19T02:56:47.283Z,99938.97
2023-01-19T02:59:31.644Z,99925.81
2023-01-19T03:02:29.707Z,99942.84
2023-01-19T03:05:24.205Z,99929.56
2023-01-19T03:08:08.307Z,99945.84
2023-01-19T03:10:49.185Z,99940.25
2023-01-19T03:13:34.373Z,99934.09
2023-01-19T03:16:14.773Z,99940.25
2023-01-19T03:18:50.150Z,99932.91
2023-01-19T03:21:25.381Z,99941.59
2023-01-19T03:24:03.228Z,99938.38
2023-01-19T03:26:40.857Z,99939.47
2023-01-19T03:29:17.587Z,99943.56
2023-01-19T03:31:52.682Z,99940.91
2023-01-19T03:34:26.248Z,99941.81
2023-01-19T03:37:02.088Z,99943.31
2023-01-19T03:39:34.459Z,99946.88
2023-01-19T03:42:09.119Z,99952.66
2023-01-19T03:44:45.504Z,99947.50
2023-01-19T03:47:18.219Z,99947.59
2023-01-19T03:49:50.953Z,99953.94
2023-01-19T03:52:32.833Z,99955.38
2023-01-19T03:55:04.573Z,99954.28
2023-01-19T03:57:36.335Z,99966.16
2023-01-19T04:00:12.122Z,99960.75
2023-01-19T04:02:43.401Z,99959.84
2023-01-19T04:05:14.651Z,99958.88
2023-01-19T04:07:46.065Z,99959.97
2023-01-19T04:10:17.023Z,99960.97
2023-01-19T04:12:48.766Z,99967.91
2023-01-19T04:15:22.646Z,99968.00
2023-01-19T04:17:54.538Z,99958.72
2023-01-19T04:20:27.571Z,99968.66
2023-01-19T04:23:02.947Z,99968.31
2023-01-19T04:25:34.779Z,99965.34
2023-01-19T04:28:06.921Z,99967.25
2023-01-19T04:30:41.486Z,99962.50
2023-01-19T04:33:13.351Z,99959.53
2023-01-19T04:35:44.778Z,99961.66
2023-01-19T04:38:16.495Z,99964.34
2023-01-19T04:40:47.720Z,99967.31
2023-01-19T04:43:19.687Z,99963.34
2023-01-19T04:45:54.157Z,99964.00
2023-01-19T04:48:25.787Z,99964.63
2023-01-19T04:50:57.226Z,99966.59
2023-01-19T04:53:29.415Z,99971.88
2023-01-19T04:56:02.696Z,99968.91
2023-01-19T04:58:34.980Z,99964.94
2023-01-19T05:01:13.656Z,99963.13
2023-01-19T05:03:45.612Z,99972.25
2023-01-19T05:06:17.452Z,99971.66
2023-01-19T05:08:49.390Z,99978.56
2023-01-19T05:11:21.459Z,99979.16
2023-01-19T05:14:00.398Z,99964.91
2023-01-19T05:16:34.838Z,99964.28
2023-01-19T05:19:12.433Z,99970.59
2023-01-19T05:21:47.471Z,99971.06
2023-01-19T05:24:20.560Z,99978.00
2023-01-19T05:26:56.631Z,99975.09
2023-01-19T05:29:29.130Z,99975.28
2023-01-19T05:32:12.290Z,99981.81
2023-01-19T05:34:45.722Z,99974.00
2023-01-19T05:37:19.880Z,99980.88
2023-01-19T05:39:59.155Z,99992.63
2023-01-19T05:42:32.708Z,99989.50
2023-01-19T05:45:05.240Z,99991.31
2023-01-19T05:47:40.332Z,99991.91
2023-01-19T05:50:15.136Z,99997.00
2023-01-19T05:52:47.056Z,100010.69
2023-01-19T05:55:19.667Z,100004.28
2023-01-19T05:57:51.658Z,100014.72
2023-01-19T06:00:25.245Z,100012.41
2023-01-19T06:03:01.187Z,100017.97
2023-01-19T06:05:34.243Z,100019.91
2023-01-19T06:08:06.284Z,100020.84
2023-01-19T06:10:38.808Z,100028.41
2023-01-19T06:13:11.586Z,100031.38
2023-01-19T06:15:48.838Z,100025.56
2023-01-19T06:18:25.334Z,100021.78
2023-01-19T06:20:59.229Z,100022.09
2023-01-19T06:23:34.824Z,100018.75
2023-01-19T06:26:07.011Z,100021.66
2023-01-19T06:28:41.205Z,100027.69
2023-01-19T06:31:13.398Z,100021.56
2023-01-19T06:33:55.063Z,100037.97
2023-01-19T06:36:27.398Z,100026.63
2023-01-19T06:39:06.083Z,100032.38
2023-01-19T06:44:37.947Z,100025.16
2023-01-19T06:47:15.685Z,100025.25
2023-01-19T06:49:51.570Z,100019.19
2023-01-19T06:52:26.006Z,100030.31
2023-01-19T06:54:59.075Z,100029.88
2023-01-19T06:57:31.038Z,100024.94
2023-01-19T07:00:05.638Z,100025.00
2023-01-19T07:02:39.754Z,100030.94
2023-01-19T07:05:14.898Z,100035.16
2023-01-19T07:07:46.916Z,100029.66
2023-01-19T07:10:18.578Z,100031.41
2023-01-19T07:13:00.810Z,100031.38
2023-01-19T07:15:32.422Z,100037.59
2023-01-19T07:18:09.025Z,100043.19
2023-01-19T07:20:47.134Z,100052.91
2023-01-19T07:23:19.305Z,100040.75
2023-01-19T07:25:51.942Z,100036.31
2023-01-19T07:28:26.730Z,100033.16
2023-01-19T07:30:59.912Z,100044.25
2023-01-19T07:33:31.962Z,100056.91
2023-01-19T07:36:12.501Z,100069.22
2023-01-19T07:38:46.516Z,100069.69
2023-01-19T07:41:20.455Z,100065.63
2023-01-19T07:43:54.413Z,100060.16
2023-01-19T07:46:28.409Z,100062.47
2023-01-19T07:49:01.255Z,100062.69
2023-01-19T07:51:37.817Z,100068.06
2023-01-19T07:54:09.502Z,100072.41
2023-01-19T07:56:41.793Z,100084.22
2023-01-19T07:59:13.676Z,100075.47
2023-01-19T08:01:46.573Z,100084.38
2023-01-19T08:04:19.207Z,100079.66
2023-01-19T08:06:56.077Z,100083.78
2023-01-19T08:09:33.123Z,100081.53
2023-01-19T08:12:04.898Z,100085.31
2023-01-19T08:14:36.969Z,100086.47
2023-01-19T08:17:10.001Z,100072.59
2023-01-19T08:19:41.767Z,100079.34
2023-01-19T08:22:15.729Z,100090.78
2023-01-19T08:24:50.304Z,100093.25
2023-01-19T08:27:22.330Z,100083.06
2023-01-19T08:29:59.195Z,100098.06
2023-01-19T08:32:38.296Z,100100.09
2023-01-19T08:35:11.647Z,100101.19
2023-01-19T08:37:45.808Z,100090.66
2023-01-19T08:40:21.798Z,100095.50
2023-01-19T08:42:58.152Z,100101.03
2023-01-19T08:45:31.157Z,100113.19
2023-01-19T08:48:03.013Z,100113.16
2023-01-19T08:50:37.148Z,100111.78
2023-01-19T08:53:13.171Z,100110.13
2023-01-19T08:55:52.508Z,100111.38
2023-01-19T08:58:27.862Z,100107.78
2023-01-19T09:01:03.912Z,100107.56
2023-01-19T09:03:35.462Z,100111.31
2023-01-19T09:06:09.945Z,100121.19
2023-01-19T09:08:43.997Z,100107.56
2023-01-19T09:11:18.758Z,100118.56
2023-01-19T09:13:50.299Z,100106.06
2023-01-19T09:16:27.537Z,100117.78
2023-01-19T09:18:59.923Z,100126.53
2023-01-19T09:21:34.888Z,100126.81
2023-01-19T09:24:10.639Z,100123.34
2023-01-19T09:26:43.719Z,100130.09
2023-01-19T09:29:16.372Z,100135.69
2023-01-19T09:31:49.360Z,100131.34
2023-01-19T09:34:23.679Z,100134.66
2023-01-19T09:36:56.971Z,100124.75
2023-01-19T09:39:32.444Z,100130.56
2023-01-19T09:42:12.401Z,100124.06
2023-01-19T09:44:48.438Z,100111.72
2023-01-19T09:47:28.277Z,100109.06
2023-01-19T09:50:07.039Z,100108.59
2023-01-19T09:52:50.927Z,100115.91
2023-01-19T09:55:29.645Z,100112.41
2023-01-19T09:58:04.520Z,100114.34
2023-01-19T10:00:37.137Z,100113.38
2023-01-19T10:03:18.639Z,100110.94
2023-01-19T10:05:56.362Z,100117.81
2023-01-19T10:08:37.917Z,100118.31
2023-01-19T10:11:34.496Z,100110.78
2023-01-19T10:14:23.526Z,100108.63
2023-01-19T10:17:09.881Z,100117.25
2023-01-19T10:19:48.640Z,100110.84
2023-01-19T10:22:25.711Z,100107.88
2023-01-19T10:25:00.613Z,100106.63
2023-01-19T10:27:38.923Z,100099.06
2023-01-19T10:30:23.695Z,100098.13
2023-01-19T10:32:57.427Z,100098.44
2023-01-19T10:35:30.561Z,100107.09
2023-01-19T10:38:06.326Z,100104.06
2023-01-19T10:40:48.290Z,100094.31
2023-01-19T10:44:29.358Z,100094.69
2023-01-19T10:47:03.809Z,100096.72
2023-01-19T10:49:43.317Z,100091.94
2023-01-19T10:52:29.423Z,100088.91
2023-01-19T10:55:03.287Z,100086.00
2023-01-19T10:57:54.080Z,100086.22
2023-01-19T11:00:39.195Z,100087.25
2023-01-19T11:03:27.385Z,100085.16
2023-01-19T11:06:22.441Z,100082.56
2023-01-19T11:08:56.803Z,100084.72
2023-01-19T11:11:29.207Z,100076.50
2023-01-19T11:14:13.975Z,100068.81
2023-01-19T11:16:56.316Z,100069.47
2023-01-19T11:19:32.928Z,100075.69
2023-01-19T11:22:22.220Z,100072.97
2023-01-19T11:24:55.608Z,100071.94
2023-01-19T11:27:29.316Z,100068.41
2023-01-19T11:30:10.844Z,100065.28
2023-01-19T11:32:49.518Z,100070.91
2023-01-19T11:35:39.372Z,100062.41
2023-01-19T11:38:21.103Z,100063.84
2023-01-19T11:41:13.243Z,100063.25
2023-01-19T11:43:51.720Z,100052.19
2023-01-19T11:46:27.831Z,100063.72
2023-01-19T11:49:07.166Z,100059.47
2023-01-19T11:51:47.654Z,100054.16
2023-01-19T11:54:25.488Z,100055.53
2023-01-19T11:57:03.926Z,100052.66
2023-01-19T11:59:39.413Z,100057.41
2023-01-19T12:02:24.459Z,100055.97
2023-01-19T12:05:08.091Z,100054.03
2023-01-19T12:07:42.727Z,100052.97
2023-01-19T12:10:28.160Z,100057.66
2023-01-19T12:13:02.496Z,100058.47
2023-01-19T12:15:41.099Z,100052.56
2023-01-19T12:18:21.961Z,100051.94
2023-01-19T12:20:59.165Z,100056.50
2023-01-19T12:23:47.534Z,100060.31
2023-01-19T12:26:38.401Z,100058.78
2023-01-19T12:29:17.059Z,100058.34
2023-01-19T12:32:26.794Z,100051.75
2023-01-19T12:34:59.064Z,100064.13
2023-01-19T12:37:46.665Z,100061.22
2023-01-19T12:40:31.632Z,100060.34
2023-01-19T12:43:08.895Z,100067.03
2023-01-19T12:45:45.547Z,100067.22
2023-01-19T12:48:29.037Z,100070.19
2023-01-19T12:51:05.653Z,100064.84
2023-01-19T12:53:40.053Z,100068.06
2023-01-19T12:56:12.736Z,100067.78
2023-01-19T12:58:52.122Z,100072.00
2023-01-19T13:01:25.349Z,100073.41
2023-01-19T13:04:09.458Z,100075.91
2023-01-19T13:07:18.346Z,100075.66
2023-01-19T13:09:52.855Z,100072.44
2023-01-19T13:12:27.708Z,100075.19
2023-01-19T13:15:31.750Z,100076.34
2023-01-19T13:18:06.500Z,100083.88
2023-01-19T13:20:50.393Z,100079.81
2023-01-19T13:23:30.490Z,100085.00
2023-01-19T13:26:10.985Z,100088.50
2023-01-19T13:28:47.121Z,100085.72
2023-01-19T13:31:23.250Z,100088.63
2023-01-19T13:33:59.506Z,100095.41
2023-01-19T13:36:36.747Z,100094.31
2023-01-19T13:39:19.506Z,100097.19
2023-01-19T13:42:05.620Z,100100.13
2023-01-19T13:44:48.299Z,100108.25
2023-01-19T13:47:26.436Z,100113.72
2023-01-19T13:50:10.064Z,100106.16
2023-01-19T13:52:49.020Z,100111.16
2023-01-19T13:55:21.332Z,100114.22
2023-01-19T13:57:58.283Z,100118.47
2023-01-19T14:00:33.604Z,100117.09
2023-01-19T14:03:25.097Z,100115.28
2023-01-19T14:12:14.968Z,100121.03
2023-01-19T14:14:52.266Z,100122.13
2023-01-19T14:17:29.798Z,100124.34
2023-01-19T14:20:05.775Z,100115.31
2023-01-19T14:22:43.451Z,100129.72
2023-01-19T14:25:34.034Z,100136.50
2023-01-19T14:28:30.842Z,100134.16
2023-01-19T14:31:06.937Z,100136.00
2023-01-19T14:33:44.109Z,100144.47
2023-01-19T14:36:29.520Z,100131.91
2023-01-19T14:39:04.078Z,100136.16
2023-01-19T14:41:47.154Z,100143.25
2023-01-19T14:44:26.804Z,100147.13
2023-01-19T14:47:01.879Z,100146.16
2023-01-19T14:49:41.600Z,100151.13
2023-01-19T14:52:27.769Z,100149.81
2023-01-19T14:55:04.178Z,100145.31
2023-01-19T14:57:40.480Z,100156.63
2023-01-19T15:00:26.661Z,100160.00
2023-01-19T15:03:00.786Z,100150.94
2023-01-19T15:05:32.790Z,100152.28
2023-01-19T15:08:06.253Z,100149.25
2023-01-19T15:10:41.985Z,100155.75
2023-01-19T15:13:22.249Z,100153.91
2023-01-19T15:15:54.741Z,100154.44
2023-01-19T15:18:31.165Z,100160.66
2023-01-19T15:21:06.118Z,100161.94
2023-01-19T15:23:37.481Z,100162.59
2023-01-19T15:26:10.744Z,100168.50
2023-01-19T15:28:42.200Z,100166.53
2023-01-19T15:31:18.807Z,100161.28
2023-01-19T15:33:53.488Z,100167.47
2023-01-19T15:36:27.093Z,100169.97
2023-01-19T15:38:58.648Z,100164.94
2023-01-19T15:41:33.309Z,100169.94
2023-01-19T15:44:05.726Z,100168.63
2023-01-19T15:46:38.280Z,100174.09
2023-01-19T15:49:12.442Z,100173.00
2023-01-19T15:51:44.034Z,100175.66
2023-01-19T15:54:17.491Z,100174.91
2023-01-19T15:56:53.097Z,100175.50
2023-01-19T15:59:24.528Z,100177.53
2023-01-19T16:01:58.013Z,100179.75
2023-01-19T16:04:32.686Z,100166.94
2023-01-19T16:07:05.090Z,100163.25
2023-01-19T16:09:37.024Z,100169.41
2023-01-19T16:12:09.527Z,100171.31
2023-01-19T16:14:41.075Z,100172.47
2023-01-19T16:17:17.960Z,100167.56
2023-01-19T16:19:52.307Z,100168.66
2023-01-19T16:22:27.184Z,100170.91
2023-01-19T16:24:59.442Z,100177.38
2023-01-19T16:27:32.242Z,100178.97
2023-01-19T16:30:06.052Z,100167.78
2023-01-19T16:32:38.865Z,100176.75
2023-01-19T16:35:16.997Z,100175.69
2023-01-19T16:37:54.319Z,100182.00
2023-01-19T16:40:26.611Z,100181.75
2023-01-19T16:42:58.923Z,100179.50
2023-01-19T16:45:32.321Z,100187.25
2023-01-19T16:48:04.387Z,100183.13
2023-01-19T16:50:43.134Z,100183.31
2023-01-19T16:53:16.853Z,100189.59
2023-01-19T16:55:50.762Z,100185.81
2023-01-19T16:58:23.182Z,100189.63
2023-01-19T17:00:56.725Z,100187.53
2023-01-19T17:03:30.326Z,100191.53
2023-01-19T17:06:05.755Z,100191.66
2023-01-19T17:08:38.484Z,100197.34
2023-01-19T17:11:19.975Z,100202.09
2023-01-19T17:13:54.312Z,100206.03
2023-01-19T17:16:28.569Z,100194.97
2023-01-19T17:19:03.299Z,100194.84
2023-01-19T17:21:39.215Z,100201.97
2023-01-19T17:24:12.614Z,100205.22
2023-01-19T17:26:48.937Z,100192.22
2023-01-19T17:29:22.182Z,100192.97
2023-01-19T17:31:55.055Z,100192.22
2023-01-19T17:34:31.577Z,100194.53
2023-01-19T17:37:07.058Z,100201.78
2023-01-19T17:39:43.539Z,100206.16
2023-01-19T17:42:15.977Z,100201.16
2023-01-19T17:45:03.223Z,100205.53
2023-01-19T17:47:35.783Z,100210.09
2023-01-19T17:50:08.754Z,100209.22
2023-01-19T17:52:48.564Z,100214.72
2023-01-19T17:55:21.164Z,100223.72
2023-01-19T17:57:55.489Z,100215.28
2023-01-19T18:00:28.134Z,100223.88
2023-01-19T18:03:03.139Z,100228.16
2023-01-19T18:05:38.035Z,100227.59
2023-01-19T18:08:14.975Z,100231.41
2023-01-19T18:10:50.594Z,100237.44
2023-01-19T18:13:23.215Z,100244.66
2023-01-19T18:15:56.010Z,100232.88
2023-01-19T18:18:28.456Z,100234.34
2023-01-19T18:21:03.275Z,100236.19
2023-01-19T18:23:39.055Z,100244.84
2023-01-19T18:26:13.895Z,100241.06
2023-01-19T18:28:46.700Z,100243.63
2023-01-19T18:31:21.104Z,100234.59
2023-01-19T18:33:55.014Z,100248.31
2023-01-19T18:36:27.732Z,100245.50
2023-01-19T18:39:04.659Z,100248.38
2023-01-19T18:41:41.002Z,100252.78
2023-01-19T18:44:16.227Z,100252.66
2023-01-19T18:47:10.809Z,100249.88
2023-01-19T18:49:43.239Z,100253.84
2023-01-19T18:52:16.097Z,100253.50
2023-01-19T18:54:51.689Z,100258.56
2023-01-19T18:57:23.905Z,100261.25
2023-01-19T18:59:56.490Z,100266.56
2023-01-19T19:02:37.614Z,100262.00
2023-01-19T19:05:13.424Z,100264.19
2023-01-19T19:07:45.888Z,100269.34
2023-01-19T19:10:21.412Z,100277.16
2023-01-19T19:12:53.803Z,100269.19
2023-01-19T19:15:32.524Z,100269.56
2023-01-19T19:18:04.707Z,100275.31
2023-01-19T19:20:37.354Z,100287.69
2023-01-19T19:23:13.119Z,100291.16
2023-01-19T19:25:51.579Z,100283.88
2023-01-19T19:28:23.977Z,100291.34
2023-01-19T19:31:08.006Z,100300.53
2023-01-19T19:33:41.983Z,100303.00
2023-01-19T19:36:15.900Z,100303.91
2023-01-19T19:38:48.318Z,100301.56
2023-01-19T19:41:27.246Z,100313.56
2023-01-19T19:44:02.298Z,100309.25
2023-01-19T19:46:34.895Z,100310.91
2023-01-19T19:49:07.361Z,100318.16
2023-01-19T19:51:39.846Z,100315.16
2023-01-19T19:54:15.278Z,100322.94
2023-01-19T19:56:52.371Z,100325.03
2023-01-19T19:59:24.449Z,100323.25
2023-01-19T20:01:57.000Z,100329.28
2023-01-19T20:04:29.076Z,100338.78
2023-01-19T20:07:02.457Z,100332.78
2023-01-19T20:09:36.038Z,100336.63
2023-01-19T20:12:17.179Z,100346.66
2023-01-19T20:14:52.541Z,100344.25
2023-01-19T20:17:25.071Z,100338.88
2023-01-19T20:19:56.886Z,100342.16
2023-01-19T20:22:29.228Z,100346.53
2023-01-19T20:25:00.844Z,100340.91
2023-01-19T20:27:40.377Z,100347.97
2023-01-19T20:30:13.903Z,100351.97
2023-01-19T20:32:48.228Z,100356.72
2023-01-19T20:35:19.454Z,100354.25
2023-01-19T20:37:51.493Z,100359.56
2023-01-19T20:40:23.123Z,100360.03
2023-01-19T20:42:57.582Z,100366.00
2023-01-19T20:45:32.049Z,100363.69
2023-01-19T20:48:04.050Z,100374.16
2023-01-19T20:50:35.566Z,100375.44
2023-01-19T20:53:07.711Z,100379.41
2023-01-19T20:55:39.659Z,100378.44
2023-01-19T20:58:13.973Z,100382.31
2023-01-19T21:00:48.101Z,100389.41
2023-01-19T21:03:20.243Z,100389.81
2023-01-19T21:05:52.038Z,100395.44
2023-01-19T21:08:23.766Z,100391.44
2023-01-19T21:10:59.608Z,100398.09
2023-01-19T21:13:39.619Z,100397.97
2023-01-19T21:16:12.211Z,100404.97
2023-01-19T21:18:44.513Z,100404.56
2023-01-19T21:21:29.378Z,100409.16
2023-01-19T21:24:03.861Z,100417.25
2023-01-19T21:26:36.524Z,100417.88
2023-01-19T21:29:13.577Z,100416.28
2023-01-19T21:31:45.695Z,100421.94
2023-01-19T21:34:17.821Z,100417.06
2023-01-19T21:36:49.578Z,100427.28
2023-01-19T21:39:21.686Z,100433.28
2023-01-19T21:41:53.632Z,100435.28
2023-01-19T21:44:28.281Z,100428.75
2023-01-19T21:47:00.106Z,100436.66
2023-01-19T21:49:36.322Z,100445.06
2023-01-19T21:52:08.900Z,100438.94
2023-01-19T21:54:41.323Z,100439.28
2023-01-19T21:57:15.581Z,100452.09
2023-01-19T21:59:52.323Z,100456.81
2023-01-19T22:02:37.923Z,100459.34
2023-01-19T22:05:16.166Z,100464.81
2023-01-19T22:07:48.522Z,100471.03
2023-01-19T22:10:23.088Z,100473.41
2023-01-19T22:13:10.863Z,100472.19
2023-01-19T22:15:45.981Z,100481.63
2023-01-19T22:18:18.306Z,100481.88
2023-01-19T22:20:50.519Z,100480.34
2023-01-19T22:23:22.352Z,100482.03
2023-01-19T22:25:54.494Z,100486.00
2023-01-19T22:28:29.501Z,100491.19
2023-01-19T22:31:12.362Z,100491.78
2023-01-19T22:33:47.823Z,100495.69
2023-01-19T22:36:22.565Z,100500.03
2023-01-19T22:38:56.476Z,100498.69
2023-01-19T22:41:32.205Z,100504.91
2023-01-19T22:44:07.780Z,100509.69
2023-01-19T22:46:43.077Z,100502.72
2023-01-19T22:49:17.584Z,100508.91
2023-01-19T22:51:54.513Z,100508.88
2023-01-19T22:54:30.236Z,100505.50
2023-01-19T22:57:02.069Z,100509.22
2023-01-19T22:59:39.927Z,100507.19
2023-01-19T23:02:17.659Z,100505.19
2023-01-19T23:04:51.256Z,100507.13
2023-01-19T23:07:23.174Z,100513.25
2023-01-19T23:09:55.482Z,100521.03
2023-01-19T23:12:27.604Z,100518.31
2023-01-19T23:15:01.257Z,100522.63
2023-01-19T23:17:44.190Z,100531.06
2023-01-19T23:20:18.699Z,100530.84
2023-01-19T23:22:51.433Z,100526.94
2023-01-19T23:25:23.701Z,100532.91
2023-01-19T23:27:56.428Z,100537.63
2023-01-19T23:30:28.674Z,100532.00
2023-01-19T23:33:06.342Z,100535.91
2023-01-19T23:36:05.441Z,100540.38
2023-01-19T23:38:38.202Z,100540.38
2023-01-19T23:41:10.844Z,100545.47
2023-01-19T23:43:43.444Z,100536.97
2023-01-19T23:46:16.819Z,100542.69
2023-01-19T23:48:54.061Z,100544.06
2023-01-19T23:51:29.472Z,100544.91
2023-01-19T23:54:03.078Z,100543.88
2023-01-19T23:56:36.985Z,100540.25
2023-01-19T23:59:36.781Z,100545.84
